This is the latest recevied weather packets stored in our database for station/object SA6BET-2. If no packets are shown the sender has not sent any weather packets the latest 10 day(s).
| Time | Temp. | Humidity | Pressure | Rain* | Wind** | Luminosity | Snow |
|---|---|---|---|---|---|---|---|
| 1787414529 | 37.22° C | 98% | 1015.8 hPa | - | - | - | - |
| 1787413629 | 35° C | 100% | 1015.8 hPa | - | - | - | - |
| 1787411829 | 36.67° C | 100% | 1015.7 hPa | - | - | - | - |
| 1787410929 | 38.33° C | 84% | 1015.7 hPa | - | - | - | - |
| 1787410029 | 36.11° C | 86% | 1015.8 hPa | - | - | - | - |
| 1787409128 | 38.33° C | 79% | 1015.7 hPa | - | - | - | - |
| 1787408228 | 36.67° C | 85% | 1015.9 hPa | - | - | - | - |
| 1787407328 | 37.78° C | 85% | 1015.9 hPa | - | - | - | - |
| 1787406428 | 38.33° C | 77% | 1016 hPa | - | - | - | - |
| 1787405528 | 38.89° C | 76% | 1016.1 hPa | - | - | - | - |
| 1787404628 | 38.89° C | 80% | 1016.3 hPa | - | - | - | - |
| 1787403727 | 38.33° C | 80% | 1016.6 hPa | - | - | - | - |
| 1787402827 | 39.44° C | 84% | 1016.5 hPa | - | - | - | - |
| 1787401927 | 37.78° C | 90% | 1016.5 hPa | - | - | - | - |
| 1787401027 | 38.33° C | 93% | 1016.6 hPa | - | - | - | - |
| 1787400126 | 36.67° C | 98% | 1016.7 hPa | - | - | - | - |
| 1787399226 | 36.67° C | 100% | 1016.9 hPa | - | - | - | - |
| 1787398326 | 36.67° C | 100% | 1017.1 hPa | - | - | - | - |
| 1787397426 | 36.67° C | 100% | 1017.1 hPa | - | - | - | - |
| 1787396526 | 36.11° C | 100% | 1017.3 hPa | - | - | - | - |
| 1787395626 | 36.11° C | 100% | 1017.2 hPa | - | - | - | - |
| 1787394725 | 34.44° C | 100% | 1017.3 hPa | - | - | - | - |
| 1787393825 | 34.44° C | 100% | 1017.5 hPa | - | - | - | - |
| 1787392925 | 33.89° C | 100% | 1017.4 hPa | - | - | - | - |
| 1787392025 | 33.33° C | 100% | 1017.4 hPa | - | - | - | - |
* Rain since midnight (hover to see other rain measurements)
** Current wind speed in m/s (hover to see current wind gust speed)